Time,TemperatureF,DewpointF,PressureIn,WindDirection,WindDirectionDegrees,WindSpeedMPH,WindSpeedGustMPH,Humidity,HourlyPrecipIn,Conditions,Clouds,dailyrainin,SoftwareType,DateUTC
2013-06-14 00:04:00,81.5,77.0,29.88,ENE,63,5.0,11.0,87,0.00,,,0.00,weatherlink.com 1.10,2013-06-14 04:04:00,
2013-06-14 00:19:00,81.4,77.0,29.88,East,92,5.0,9.0,87,0.00,,,0.00,weatherlink.com 1.10,2013-06-14 04:19:00,
2013-06-14 00:34:00,81.4,77.0,29.87,ENE,71,5.0,12.0,87,0.00,,,0.00,weatherlink.com 1.10,2013-06-14 04:34:00,
2013-06-14 00:49:00,81.4,77.0,29.87,East,82,7.0,14.0,87,0.00,,,0.00,weatherlink.com 1.10,2013-06-14 04:49:00,
2013-06-14 01:04:00,81.6,77.0,29.86,NE,44,7.0,13.0,87,0.00,,,0.00,weatherlink.com 1.10,2013-06-14 05:04:00,
2013-06-14 01:19:00,81.4,77.0,29.86,ENE,60,4.0,12.0,87,0.00,,,0.00,weatherlink.com 1.10,2013-06-14 05:19:00,
2013-06-14 01:34:00,81.5,77.0,29.86,ENE,74,9.0,16.0,86,0.00,,,0.00,weatherlink.com 1.10,2013-06-14 05:34:00,
2013-06-14 01:49:00,81.4,77.0,29.85,ESE,111,5.0,14.0,86,0.00,,,0.00,weatherlink.com 1.10,2013-06-14 05:49:00,
2013-06-14 02:04:00,81.5,77.0,29.85,ENE,72,4.0,12.0,86,0.00,,,0.00,weatherlink.com 1.10,2013-06-14 06:04:00,
2013-06-14 02:19:00,81.2,77.0,29.85,East,81,8.0,13.0,87,0.00,,,0.00,weatherlink.com 1.10,2013-06-14 06:19:00,
2013-06-14 02:34:00,81.1,77.0,29.85,SE,125,7.0,11.0,86,0.00,,,0.00,weatherlink.com 1.10,2013-06-14 06:34:00,
2013-06-14 02:49:00,81.2,77.0,29.85,East,79,9.0,13.0,86,0.00,,,0.00,weatherlink.com 1.10,2013-06-14 06:49:00,
2013-06-14 03:04:00,81.3,77.0,29.85,ENE,67,5.0,14.0,86,0.00,,,0.00,weatherlink.com 1.10,2013-06-14 07:04:00,
2013-06-14 03:19:00,81.3,77.0,29.84,ESE,105,5.0,13.0,86,0.00,,,0.00,weatherlink.com 1.10,2013-06-14 07:19:00,
2013-06-14 03:34:00,81.3,77.0,29.84,ESE,111,5.0,13.0,85,0.00,,,0.00,weatherlink.com 1.10,2013-06-14 07:34:00,
2013-06-14 03:49:00,81.4,77.0,29.84,ESE,111,8.0,11.0,85,0.00,,,0.00,weatherlink.com 1.10,2013-06-14 07:49:00,
2013-06-14 04:04:00,81.4,77.0,29.84,ESE,121,5.0,11.0,85,0.00,,,0.00,weatherlink.com 1.10,2013-06-14 08:04:00,
2013-06-14 04:19:00,81.4,77.0,29.84,ESE,111,4.0,15.0,85,0.00,,,0.00,weatherlink.com 1.10,2013-06-14 08:19:00,
2013-06-14 04:34:00,81.6,77.0,29.83,ESE,105,11.0,15.0,85,0.00,,,0.00,weatherlink.com 1.10,2013-06-14 08:34:00,
2013-06-14 04:50:00,80.8,76.0,29.83,East,91,7.0,13.0,86,0.00,,,0.00,weatherlink.com 1.10,2013-06-14 08:50:00,
2013-06-14 05:05:00,80.3,77.0,29.82,ESE,107,3.0,15.0,88,0.00,,,0.00,weatherlink.com 1.10,2013-06-14 09:05:00,
2013-06-14 05:20:00,80.7,77.0,29.82,SE,130,4.0,13.0,87,0.00,,,0.00,weatherlink.com 1.10,2013-06-14 09:20:00,
2013-06-14 05:35:00,80.8,77.0,29.82,East,98,6.0,14.0,87,0.00,,,0.00,weatherlink.com 1.10,2013-06-14 09:35:00,
2013-06-14 05:50:00,81.0,77.0,29.82,SE,136,3.0,13.0,87,0.00,,,0.00,weatherlink.com 1.10,2013-06-14 09:50:00,
2013-06-14 06:05:00,81.2,77.0,29.83,ENE,76,7.0,11.0,86,0.00,,,0.00,weatherlink.com 1.10,2013-06-14 10:05:00,
2013-06-14 06:20:00,81.2,77.0,29.83,ENE,69,12.0,15.0,86,0.00,,,0.00,weatherlink.com 1.10,2013-06-14 10:20:00,
2013-06-14 06:35:00,81.5,77.0,29.84,ESE,123,3.0,14.0,86,0.00,,,0.00,weatherlink.com 1.10,2013-06-14 10:35:00,
2013-06-14 06:50:00,81.7,77.0,29.84,ESE,103,10.0,14.0,85,0.00,,,0.00,weatherlink.com 1.10,2013-06-14 10:50:00,
2013-06-14 07:05:00,82.1,77.0,29.85,ESE,104,12.0,13.0,85,0.00,,,0.00,weatherlink.com 1.10,2013-06-14 11:05:00,
2013-06-14 07:20:00,82.2,77.0,29.85,ESE,103,7.0,17.0,84,0.00,,,0.00,weatherlink.com 1.10,2013-06-14 11:20:00,
2013-06-14 07:35:00,82.5,77.0,29.85,ENE,78,12.0,15.0,84,0.00,,,0.00,weatherlink.com 1.10,2013-06-14 11:35:00,
2013-06-14 07:50:00,83.2,77.0,29.86,ESE,105,12.0,16.0,81,0.00,,,0.00,weatherlink.com 1.10,2013-06-14 11:50:00,
2013-06-14 08:05:00,83.3,77.0,29.86,ESE,110,10.0,15.0,82,0.00,,,0.00,weatherlink.com 1.10,2013-06-14 12:05:00,
2013-06-14 08:20:00,84.3,78.0,29.86,ENE,71,8.0,17.0,80,0.00,,,0.00,weatherlink.com 1.10,2013-06-14 12:20:00,
2013-06-14 08:35:00,84.4,78.0,29.87,ESE,114,10.0,17.0,80,0.00,,,0.00,weatherlink.com 1.10,2013-06-14 12:35:00,
2013-06-14 08:50:00,83.5,78.0,29.87,ESE,120,12.0,17.0,82,0.00,,,0.00,weatherlink.com 1.10,2013-06-14 12:50:00,
2013-06-14 09:05:00,84.8,78.0,29.87,East,82,7.0,21.0,80,0.00,,,0.00,weatherlink.com 1.10,2013-06-14 13:05:00,
2013-06-14 09:20:00,85.4,78.0,29.87,ENE,78,8.0,18.0,78,0.00,,,0.00,weatherlink.com 1.10,2013-06-14 13:20:00,
2013-06-14 09:35:00,85.5,78.0,29.87,ESE,111,7.0,22.0,78,0.00,,,0.00,weatherlink.com 1.10,2013-06-14 13:35:00,
2013-06-14 09:50:00,85.9,78.0,29.88,East,86,14.0,21.0,77,0.00,,,0.00,weatherlink.com 1.10,2013-06-14 13:50:00,
2013-06-14 10:05:00,85.7,78.0,29.88,SE,127,12.0,18.0,78,0.00,,,0.00,weatherlink.com 1.10,2013-06-14 14:05:00,
2013-06-14 10:20:00,85.4,78.0,29.87,East,93,7.0,16.0,79,0.00,,,0.00,weatherlink.com 1.10,2013-06-14 14:20:00,
2013-06-14 10:35:00,84.6,79.0,29.88,East,80,13.0,18.0,82,0.00,,,0.00,weatherlink.com 1.10,2013-06-14 14:35:00,
2013-06-14 10:50:00,85.6,78.0,29.87,SE,130,10.0,24.0,77,0.00,,,0.00,weatherlink.com 1.10,2013-06-14 14:50:00,
2013-06-14 11:05:00,86.6,77.0,29.87,ESE,107,12.0,23.0,73,0.00,,,0.00,weatherlink.com 1.10,2013-06-14 15:05:00,
2013-06-14 11:20:00,87.3,78.0,29.87,East,100,8.0,25.0,73,0.00,,,0.00,weatherlink.com 1.10,2013-06-14 15:20:00,
2013-06-14 11:35:00,87.5,78.0,29.86,SE,129,11.0,22.0,73,0.00,,,0.00,weatherlink.com 1.10,2013-06-14 15:35:00,
2013-06-14 11:50:00,87.7,78.0,29.86,East,101,8.0,21.0,72,0.00,,,0.00,weatherlink.com 1.10,2013-06-14 15:50:00,
2013-06-14 12:05:00,87.4,78.0,29.86,ENE,70,15.0,18.0,73,0.00,,,0.00,weatherlink.com 1.10,2013-06-14 16:05:00,
2013-06-14 12:20:00,87.5,77.0,29.85,SE,126,8.0,17.0,72,0.00,,,0.00,weatherlink.com 1.10,2013-06-14 16:20:00,
2013-06-14 12:35:00,87.2,77.0,29.85,East,82,17.0,24.0,72,0.00,,,0.00,weatherlink.com 1.10,2013-06-14 16:35:00,
2013-06-14 12:50:00,87.4,77.0,29.85,East,95,11.0,21.0,71,0.00,,,0.00,weatherlink.com 1.10,2013-06-14 16:50:00,
2013-06-14 13:05:00,87.9,77.0,29.84,East,87,7.0,18.0,71,0.00,,,0.00,weatherlink.com 1.10,2013-06-14 17:05:00,
2013-06-14 13:20:00,87.7,77.0,29.84,SE,129,11.0,21.0,70,0.00,,,0.00,weatherlink.com 1.10,2013-06-14 17:20:00,
2013-06-14 13:35:00,87.8,77.0,29.83,East,94,15.0,23.0,71,0.00,,,0.00,weatherlink.com 1.10,2013-06-14 17:35:00,
2013-06-14 13:50:00,87.3,77.0,29.82,ESE,114,12.0,19.0,71,0.00,,,0.00,weatherlink.com 1.10,2013-06-14 17:50:00,
2013-06-14 14:05:00,88.1,77.0,29.82,East,84,7.0,19.0,70,0.00,,,0.00,weatherlink.com 1.10,2013-06-14 18:05:00,
2013-06-14 14:20:00,87.9,77.0,29.82,ESE,106,11.0,22.0,70,0.00,,,0.00,weatherlink.com 1.10,2013-06-14 18:20:00,
2013-06-14 14:35:00,87.7,77.0,29.81,SE,141,8.0,19.0,71,0.00,,,0.00,weatherlink.com 1.10,2013-06-14 18:35:00,
2013-06-14 14:50:00,87.9,78.0,29.81,ESE,117,5.0,21.0,72,0.00,,,0.00,weatherlink.com 1.10,2013-06-14 18:50:00,
2013-06-14 15:05:00,87.4,77.0,29.80,East,83,11.0,23.0,72,0.00,,,0.00,weatherlink.com 1.10,2013-06-14 19:05:00,
2013-06-14 15:20:00,87.1,78.0,29.80,ENE,74,8.0,18.0,73,0.00,,,0.00,weatherlink.com 1.10,2013-06-14 19:20:00,
2013-06-14 15:35:00,87.1,77.0,29.79,East,84,13.0,22.0,72,0.00,,,0.00,weatherlink.com 1.10,2013-06-14 19:35:00,
2013-06-14 15:50:00,86.6,77.0,29.79,ENE,76,8.0,24.0,74,0.00,,,0.00,weatherlink.com 1.10,2013-06-14 19:50:00,
2013-06-14 16:05:00,87.0,78.0,29.79,ENE,62,5.0,21.0,74,0.00,,,0.00,weatherlink.com 1.10,2013-06-14 20:05:00,
2013-06-14 16:20:00,86.3,78.0,29.79,NE,53,13.0,23.0,75,0.00,,,0.00,weatherlink.com 1.10,2013-06-14 20:20:00,
2013-06-14 16:35:00,86.1,77.0,29.80,ESE,102,9.0,21.0,75,0.00,,,0.00,weatherlink.com 1.10,2013-06-14 20:35:00,
2013-06-14 16:51:00,86.4,77.0,29.80,East,88,15.0,16.0,74,0.00,,,0.00,weatherlink.com 1.10,2013-06-14 20:51:00,
2013-06-14 17:06:00,86.1,77.0,29.80,East,101,6.0,21.0,75,0.00,,,0.00,weatherlink.com 1.10,2013-06-14 21:06:00,
2013-06-14 17:21:00,85.3,77.0,29.81,East,86,10.0,21.0,75,0.00,,,0.00,weatherlink.com 1.10,2013-06-14 21:21:00,
2013-06-14 17:36:00,85.1,77.0,29.81,ENE,72,12.0,19.0,76,0.00,,,0.00,weatherlink.com 1.10,2013-06-14 21:36:00,
2013-06-14 17:51:00,85.0,77.0,29.81,East,88,14.0,19.0,76,0.00,,,0.00,weatherlink.com 1.10,2013-06-14 21:51:00,
2013-06-14 18:06:00,84.4,77.0,29.82,ENE,58,12.0,18.0,79,0.00,,,0.00,weatherlink.com 1.10,2013-06-14 22:06:00,
2013-06-14 18:21:00,83.7,77.0,29.82,ENE,66,2.0,15.0,80,0.00,,,0.00,weatherlink.com 1.10,2013-06-14 22:21:00,
2013-06-14 18:36:00,83.4,77.0,29.82,ENE,74,7.0,18.0,80,0.00,,,0.00,weatherlink.com 1.10,2013-06-14 22:36:00,
2013-06-14 18:51:00,83.0,77.0,29.82,East,91,7.0,14.0,81,0.00,,,0.00,weatherlink.com 1.10,2013-06-14 22:51:00,
2013-06-14 19:06:00,82.9,77.0,29.81,East,86,6.0,16.0,82,0.00,,,0.00,weatherlink.com 1.10,2013-06-14 23:06:00,
2013-06-14 19:21:00,82.7,77.0,29.82,ESE,111,4.0,16.0,82,0.00,,,0.00,weatherlink.com 1.10,2013-06-14 23:21:00,
2013-06-14 19:36:00,82.6,77.0,29.82,East,79,11.0,14.0,83,0.00,,,0.00,weatherlink.com 1.10,2013-06-14 23:36:00,
2013-06-14 19:51:00,82.4,76.0,29.82,ENE,72,9.0,13.0,82,0.00,,,0.00,weatherlink.com 1.10,2013-06-14 23:51:00,
2013-06-14 20:06:00,82.3,77.0,29.82,ESE,107,5.0,11.0,83,0.00,,,0.00,weatherlink.com 1.10,2013-06-15 00:06:00,
2013-06-14 20:21:00,82.3,77.0,29.83,SE,134,4.0,14.0,83,0.00,,,0.00,weatherlink.com 1.10,2013-06-15 00:21:00,
2013-06-14 20:36:00,82.2,77.0,29.84,East,98,7.0,14.0,83,0.00,,,0.00,weatherlink.com 1.10,2013-06-15 00:36:00,
2013-06-14 20:51:00,82.2,77.0,29.84,ENE,71,5.0,14.0,84,0.00,,,0.00,weatherlink.com 1.10,2013-06-15 00:51:00,
2013-06-14 21:06:00,82.1,77.0,29.84,ENE,69,3.0,17.0,83,0.00,,,0.00,weatherlink.com 1.10,2013-06-15 01:06:00,
2013-06-14 21:21:00,82.2,77.0,29.84,East,101,13.0,16.0,84,0.00,,,0.00,weatherlink.com 1.10,2013-06-15 01:21:00,
2013-06-14 21:36:00,82.1,77.0,29.84,ENE,68,9.0,15.0,85,0.00,,,0.00,weatherlink.com 1.10,2013-06-15 01:36:00,
2013-06-14 21:51:00,82.1,77.0,29.85,NE,53,6.0,14.0,85,0.00,,,0.00,weatherlink.com 1.10,2013-06-15 01:51:00,
2013-06-14 22:06:00,82.1,78.0,29.85,East,87,13.0,15.0,86,0.00,,,0.00,weatherlink.com 1.10,2013-06-15 02:06:00,
2013-06-14 22:21:00,82.1,77.0,29.85,ESE,115,10.0,16.0,85,0.00,,,0.00,weatherlink.com 1.10,2013-06-15 02:21:00,
2013-06-14 22:36:00,82.1,78.0,29.85,ESE,121,2.0,12.0,86,0.00,,,0.00,weatherlink.com 1.10,2013-06-15 02:36:00,
2013-06-14 22:51:00,82.1,78.0,29.86,East,98,11.0,16.0,86,0.00,,,0.00,weatherlink.com 1.10,2013-06-15 02:51:00,
2013-06-14 23:06:00,82.3,77.0,29.86,ENE,63,8.0,16.0,85,0.00,,,0.00,weatherlink.com 1.10,2013-06-15 03:06:00,
2013-06-14 23:21:00,82.3,77.0,29.87,East,97,10.0,15.0,85,0.00,,,0.00,weatherlink.com 1.10,2013-06-15 03:21:00,
2013-06-14 23:36:00,82.3,78.0,29.87,NE,49,4.0,17.0,86,0.00,,,0.00,weatherlink.com 1.10,2013-06-15 03:36:00,
2013-06-14 23:51:00,82.2,77.0,29.88,East,79,3.0,14.0,85,0.00,,,0.00,weatherlink.com 1.10,2013-06-15 03:51:00,